sensor_id;sensor_type;location;lat;lon;timestamp;P1;durP1;ratioP1;P2;durP2;ratioP2
34924;SDS011;21130;51.728;8.748;2022-08-03T00:01:51;6.32;;;5.72;;
34924;SDS011;21130;51.728;8.748;2022-08-03T00:04:16;6.63;;;5.45;;
34924;SDS011;21130;51.728;8.748;2022-08-03T00:06:42;5.70;;;5.10;;
34924;SDS011;21130;51.728;8.748;2022-08-03T00:09:07;6.20;;;5.60;;
34924;SDS011;21130;51.728;8.748;2022-08-03T00:11:33;5.20;;;4.80;;
34924;SDS011;21130;51.728;8.748;2022-08-03T00:13:59;5.28;;;4.88;;
34924;SDS011;21130;51.728;8.748;2022-08-03T00:16:24;5.47;;;5.07;;
34924;SDS011;21130;51.728;8.748;2022-08-03T00:18:50;5.50;;;5.10;;
34924;SDS011;21130;51.728;8.748;2022-08-03T00:21:16;5.78;;;5.28;;
34924;SDS011;21130;51.728;8.748;2022-08-03T00:23:41;5.68;;;5.28;;
34924;SDS011;21130;51.728;8.748;2022-08-03T00:26:07;5.68;;;5.22;;
34924;SDS011;21130;51.728;8.748;2022-08-03T00:28:32;6.30;;;5.78;;
34924;SDS011;21130;51.728;8.748;2022-08-03T00:30:58;5.75;;;5.35;;
34924;SDS011;21130;51.728;8.748;2022-08-03T00:33:23;5.70;;;5.25;;
34924;SDS011;21130;51.728;8.748;2022-08-03T00:35:48;6.00;;;5.45;;
34924;SDS011;21130;51.728;8.748;2022-08-03T00:38:14;7.10;;;5.90;;
34924;SDS011;21130;51.728;8.748;2022-08-03T00:40:39;6.85;;;6.25;;
34924;SDS011;21130;51.728;8.748;2022-08-03T00:43:05;6.07;;;5.65;;
34924;SDS011;21130;51.728;8.748;2022-08-03T00:45:36;7.60;;;6.90;;
34924;SDS011;21130;51.728;8.748;2022-08-03T00:48:03;6.90;;;6.30;;
34924;SDS011;21130;51.728;8.748;2022-08-03T00:50:31;6.85;;;6.25;;
34924;SDS011;21130;51.728;8.748;2022-08-03T00:52:59;6.85;;;6.20;;
34924;SDS011;21130;51.728;8.748;2022-08-03T00:55:25;7.10;;;6.53;;
34924;SDS011;21130;51.728;8.748;2022-08-03T00:57:51;7.20;;;6.65;;
34924;SDS011;21130;51.728;8.748;2022-08-03T01:00:17;6.43;;;5.90;;
34924;SDS011;21130;51.728;8.748;2022-08-03T01:02:45;6.15;;;5.55;;
34924;SDS011;21130;51.728;8.748;2022-08-03T01:05:10;5.72;;;5.32;;
34924;SDS011;21130;51.728;8.748;2022-08-03T01:07:43;6.25;;;5.70;;
34924;SDS011;21130;51.728;8.748;2022-08-03T01:10:38;6.20;;;5.60;;
34924;SDS011;21130;51.728;8.748;2022-08-03T01:13:21;5.78;;;5.38;;
34924;SDS011;21130;51.728;8.748;2022-08-03T01:15:58;5.70;;;5.20;;
34924;SDS011;21130;51.728;8.748;2022-08-03T01:18:31;6.60;;;6.03;;
34924;SDS011;21130;51.728;8.748;2022-08-03T01:21:02;6.47;;;5.95;;
34924;SDS011;21130;51.728;8.748;2022-08-03T01:23:48;5.60;;;5.20;;
34924;SDS011;21130;51.728;8.748;2022-08-03T01:26:41;5.78;;;5.30;;
34924;SDS011;21130;51.728;8.748;2022-08-03T01:32:17;5.95;;;5.45;;
34924;SDS011;21130;51.728;8.748;2022-08-03T01:34:47;6.38;;;5.78;;
34924;SDS011;21130;51.728;8.748;2022-08-03T01:37:23;6.90;;;6.30;;
34924;SDS011;21130;51.728;8.748;2022-08-03T01:39:56;6.80;;;6.20;;
34924;SDS011;21130;51.728;8.748;2022-08-03T01:42:22;6.22;;;5.72;;
34924;SDS011;21130;51.728;8.748;2022-08-03T01:44:50;5.60;;;5.15;;
34924;SDS011;21130;51.728;8.748;2022-08-03T01:47:18;6.20;;;5.55;;
34924;SDS011;21130;51.728;8.748;2022-08-03T01:49:45;6.15;;;5.65;;
34924;SDS011;21130;51.728;8.748;2022-08-03T01:52:15;7.32;;;6.00;;
34924;SDS011;21130;51.728;8.748;2022-08-03T01:54:43;6.95;;;6.35;;
34924;SDS011;21130;51.728;8.748;2022-08-03T01:57:10;5.88;;;5.38;;
34924;SDS011;21130;51.728;8.748;2022-08-03T01:59:37;5.95;;;5.45;;
34924;SDS011;21130;51.728;8.748;2022-08-03T02:02:04;5.93;;;5.50;;
34924;SDS011;21130;51.728;8.748;2022-08-03T02:04:32;5.80;;;5.38;;
34924;SDS011;21130;51.728;8.748;2022-08-03T02:07:00;6.07;;;5.68;;
34924;SDS011;21130;51.728;8.748;2022-08-03T02:09:26;5.40;;;5.00;;
34924;SDS011;21130;51.728;8.748;2022-08-03T02:11:54;5.78;;;5.30;;
34924;SDS011;21130;51.728;8.748;2022-08-03T02:14:21;5.88;;;5.45;;
34924;SDS011;21130;51.728;8.748;2022-08-03T02:16:48;6.45;;;5.85;;
34924;SDS011;21130;51.728;8.748;2022-08-03T02:19:14;6.68;;;5.97;;
34924;SDS011;21130;51.728;8.748;2022-08-03T02:21:40;6.88;;;5.93;;
34924;SDS011;21130;51.728;8.748;2022-08-03T02:24:09;7.28;;;5.70;;
34924;SDS011;21130;51.728;8.748;2022-08-03T02:26:35;5.95;;;5.45;;
34924;SDS011;21130;51.728;8.748;2022-08-03T02:29:05;6.25;;;5.75;;
34924;SDS011;21130;51.728;8.748;2022-08-03T02:31:35;6.28;;;5.00;;
34924;SDS011;21130;51.728;8.748;2022-08-03T02:34:02;6.15;;;5.55;;
34924;SDS011;21130;51.728;8.748;2022-08-03T02:36:34;5.80;;;5.30;;
34924;SDS011;21130;51.728;8.748;2022-08-03T02:39:03;5.55;;;5.05;;
34924;SDS011;21130;51.728;8.748;2022-08-03T02:41:32;5.68;;;5.18;;
34924;SDS011;21130;51.728;8.748;2022-08-03T02:44:01;5.60;;;5.10;;
34924;SDS011;21130;51.728;8.748;2022-08-03T02:46:31;5.70;;;5.20;;
34924;SDS011;21130;51.728;8.748;2022-08-03T02:49:01;5.97;;;5.38;;
34924;SDS011;21130;51.728;8.748;2022-08-03T02:51:29;5.35;;;4.95;;
34924;SDS011;21130;51.728;8.748;2022-08-03T02:53:56;5.47;;;5.05;;
34924;SDS011;21130;51.728;8.748;2022-08-03T02:56:24;5.50;;;5.10;;
34924;SDS011;21130;51.728;8.748;2022-08-03T02:58:50;5.53;;;5.10;;
34924;SDS011;21130;51.728;8.748;2022-08-03T03:01:23;5.15;;;4.78;;
34924;SDS011;21130;51.728;8.748;2022-08-03T03:03:51;5.70;;;5.20;;
34924;SDS011;21130;51.728;8.748;2022-08-03T03:06:18;6.10;;;5.60;;
34924;SDS011;21130;51.728;8.748;2022-08-03T03:08:45;6.03;;;5.53;;
34924;SDS011;21130;51.728;8.748;2022-08-03T03:11:12;5.45;;;5.05;;
34924;SDS011;21130;51.728;8.748;2022-08-03T03:13:40;4.85;;;4.35;;
34924;SDS011;21130;51.728;8.748;2022-08-03T03:16:07;5.53;;;5.03;;
34924;SDS011;21130;51.728;8.748;2022-08-03T03:18:35;5.80;;;5.30;;
34924;SDS011;21130;51.728;8.748;2022-08-03T03:21:02;5.93;;;5.28;;
34924;SDS011;21130;51.728;8.748;2022-08-03T03:23:28;5.72;;;5.22;;
34924;SDS011;21130;51.728;8.748;2022-08-03T03:25:55;5.88;;;5.30;;
34924;SDS011;21130;51.728;8.748;2022-08-03T03:28:23;5.88;;;5.30;;
34924;SDS011;21130;51.728;8.748;2022-08-03T03:30:49;6.68;;;5.25;;
34924;SDS011;21130;51.728;8.748;2022-08-03T03:33:14;5.93;;;5.35;;
34924;SDS011;21130;51.728;8.748;2022-08-03T03:35:40;5.28;;;4.88;;
34924;SDS011;21130;51.728;8.748;2022-08-03T03:38:08;5.35;;;4.95;;
34924;SDS011;21130;51.728;8.748;2022-08-03T03:40:39;5.93;;;5.32;;
34924;SDS011;21130;51.728;8.748;2022-08-03T03:43:09;6.30;;;5.20;;
34924;SDS011;21130;51.728;8.748;2022-08-03T03:45:35;5.18;;;4.78;;
34924;SDS011;21130;51.728;8.748;2022-08-03T03:48:03;4.78;;;4.38;;
34924;SDS011;21130;51.728;8.748;2022-08-03T03:50:33;5.80;;;5.30;;
34924;SDS011;21130;51.728;8.748;2022-08-03T03:53:00;5.82;;;5.32;;
34924;SDS011;21130;51.728;8.748;2022-08-03T03:55:26;5.18;;;4.78;;
34924;SDS011;21130;51.728;8.748;2022-08-03T03:57:51;5.25;;;4.75;;
34924;SDS011;21130;51.728;8.748;2022-08-03T04:00:17;5.60;;;4.65;;
34924;SDS011;21130;51.728;8.748;2022-08-03T04:02:43;5.35;;;4.95;;
34924;SDS011;21130;51.728;8.748;2022-08-03T04:05:09;5.05;;;4.65;;
34924;SDS011;21130;51.728;8.748;2022-08-03T04:08:00;5.50;;;5.10;;
34924;SDS011;21130;51.728;8.748;2022-08-03T04:10:53;6.22;;;4.88;;
34924;SDS011;21130;51.728;8.748;2022-08-03T04:13:37;5.70;;;5.18;;
34924;SDS011;21130;51.728;8.748;2022-08-03T04:16:08;4.90;;;4.50;;
34924;SDS011;21130;51.728;8.748;2022-08-03T04:18:36;5.43;;;5.03;;
34924;SDS011;21130;51.728;8.748;2022-08-03T04:21:05;6.13;;;5.53;;
34924;SDS011;21130;51.728;8.748;2022-08-03T04:23:34;5.38;;;4.88;;
34924;SDS011;21130;51.728;8.748;2022-08-03T04:26:03;5.38;;;4.40;;
34924;SDS011;21130;51.728;8.748;2022-08-03T04:28:33;5.30;;;4.80;;
34924;SDS011;21130;51.728;8.748;2022-08-03T04:31:00;5.80;;;5.10;;
34924;SDS011;21130;51.728;8.748;2022-08-03T04:33:28;5.07;;;4.68;;
34924;SDS011;21130;51.728;8.748;2022-08-03T04:35:57;5.38;;;4.88;;
34924;SDS011;21130;51.728;8.748;2022-08-03T04:38:24;5.45;;;5.00;;
34924;SDS011;21130;51.728;8.748;2022-08-03T04:40:53;5.43;;;4.93;;
34924;SDS011;21130;51.728;8.748;2022-08-03T04:43:20;5.32;;;4.88;;
34924;SDS011;21130;51.728;8.748;2022-08-03T04:45:47;4.70;;;4.40;;
34924;SDS011;21130;51.728;8.748;2022-08-03T04:48:13;5.32;;;4.93;;
34924;SDS011;21130;51.728;8.748;2022-08-03T04:50:40;5.03;;;4.63;;
34924;SDS011;21130;51.728;8.748;2022-08-03T04:53:06;5.15;;;4.70;;
34924;SDS011;21130;51.728;8.748;2022-08-03T04:55:32;5.10;;;4.68;;
34924;SDS011;21130;51.728;8.748;2022-08-03T04:57:58;4.53;;;4.03;;
34924;SDS011;21130;51.728;8.748;2022-08-03T05:00:24;4.95;;;4.55;;
34924;SDS011;21130;51.728;8.748;2022-08-03T05:02:50;5.30;;;4.90;;
34924;SDS011;21130;51.728;8.748;2022-08-03T05:05:17;5.13;;;4.50;;
34924;SDS011;21130;51.728;8.748;2022-08-03T05:07:43;5.55;;;4.45;;
34924;SDS011;21130;51.728;8.748;2022-08-03T05:10:09;4.47;;;4.18;;
34924;SDS011;21130;51.728;8.748;2022-08-03T05:12:35;4.30;;;4.00;;
34924;SDS011;21130;51.728;8.748;2022-08-03T05:15:01;4.68;;;4.20;;
34924;SDS011;21130;51.728;8.748;2022-08-03T05:17:27;5.22;;;4.07;;
34924;SDS011;21130;51.728;8.748;2022-08-03T05:19:53;4.88;;;4.47;;
34924;SDS011;21130;51.728;8.748;2022-08-03T05:22:37;4.82;;;4.43;;
34924;SDS011;21130;51.728;8.748;2022-08-03T05:25:03;5.35;;;4.30;;
34924;SDS011;21130;51.728;8.748;2022-08-03T05:27:29;5.25;;;4.65;;
34924;SDS011;21130;51.728;8.748;2022-08-03T05:29:55;4.78;;;4.38;;
34924;SDS011;21130;51.728;8.748;2022-08-03T05:32:20;4.22;;;3.92;;
34924;SDS011;21130;51.728;8.748;2022-08-03T05:34:45;6.60;;;4.13;;
34924;SDS011;21130;51.728;8.748;2022-08-03T05:37:11;4.70;;;4.30;;
34924;SDS011;21130;51.728;8.748;2022-08-03T05:39:36;4.65;;;4.25;;
34924;SDS011;21130;51.728;8.748;2022-08-03T05:42:02;5.45;;;4.30;;
34924;SDS011;21130;51.728;8.748;2022-08-03T05:44:27;4.82;;;3.83;;
34924;SDS011;21130;51.728;8.748;2022-08-03T05:46:53;4.10;;;3.67;;
34924;SDS011;21130;51.728;8.748;2022-08-03T05:49:18;4.10;;;3.80;;
34924;SDS011;21130;51.728;8.748;2022-08-03T05:51:44;6.68;;;6.03;;
34924;SDS011;21130;51.728;8.748;2022-08-03T05:54:10;5.90;;;5.32;;
34924;SDS011;21130;51.728;8.748;2022-08-03T05:56:35;4.75;;;4.35;;
34924;SDS011;21130;51.728;8.748;2022-08-03T05:59:00;5.38;;;4.28;;
34924;SDS011;21130;51.728;8.748;2022-08-03T06:01:26;4.60;;;3.85;;
34924;SDS011;21130;51.728;8.748;2022-08-03T06:03:51;3.83;;;3.47;;
34924;SDS011;21130;51.728;8.748;2022-08-03T06:06:16;3.63;;;3.13;;
34924;SDS011;21130;51.728;8.748;2022-08-03T06:08:43;3.35;;;3.05;;
34924;SDS011;21130;51.728;8.748;2022-08-03T06:11:10;4.35;;;2.75;;
34924;SDS011;21130;51.728;8.748;2022-08-03T06:13:36;3.97;;;2.80;;
34924;SDS011;21130;51.728;8.748;2022-08-03T06:16:01;2.72;;;2.53;;
34924;SDS011;21130;51.728;8.748;2022-08-03T06:18:27;3.00;;;2.70;;
34924;SDS011;21130;51.728;8.748;2022-08-03T06:20:52;2.88;;;2.67;;
34924;SDS011;21130;51.728;8.748;2022-08-03T06:23:18;3.63;;;3.05;;
34924;SDS011;21130;51.728;8.748;2022-08-03T06:25:44;2.88;;;2.55;;
34924;SDS011;21130;51.728;8.748;2022-08-03T06:28:09;3.38;;;2.38;;
34924;SDS011;21130;51.728;8.748;2022-08-03T06:30:37;2.60;;;2.40;;
34924;SDS011;21130;51.728;8.748;2022-08-03T06:33:03;3.70;;;2.47;;
34924;SDS011;21130;51.728;8.748;2022-08-03T06:35:28;2.35;;;2.10;;
34924;SDS011;21130;51.728;8.748;2022-08-03T06:37:54;4.22;;;2.38;;
34924;SDS011;21130;51.728;8.748;2022-08-03T06:40:20;3.05;;;2.40;;
34924;SDS011;21130;51.728;8.748;2022-08-03T06:42:57;2.90;;;2.63;;
34924;SDS011;21130;51.728;8.748;2022-08-03T06:45:24;3.88;;;2.40;;
34924;SDS011;21130;51.728;8.748;2022-08-03T06:47:59;2.55;;;2.00;;
34924;SDS011;21130;51.728;8.748;2022-08-03T06:50:29;5.50;;;2.33;;
34924;SDS011;21130;51.728;8.748;2022-08-03T06:52:55;3.22;;;2.15;;
34924;SDS011;21130;51.728;8.748;2022-08-03T06:55:20;3.15;;;2.13;;
34924;SDS011;21130;51.728;8.748;2022-08-03T06:57:45;6.63;;;2.20;;
34924;SDS011;21130;51.728;8.748;2022-08-03T07:00:11;3.63;;;2.15;;
34924;SDS011;21130;51.728;8.748;2022-08-03T07:02:37;7.53;;;3.97;;
34924;SDS011;21130;51.728;8.748;2022-08-03T07:05:03;4.60;;;2.63;;
34924;SDS011;21130;51.728;8.748;2022-08-03T07:07:29;8.52;;;2.53;;
34924;SDS011;21130;51.728;8.748;2022-08-03T07:09:54;2.83;;;1.95;;
34924;SDS011;21130;51.728;8.748;2022-08-03T07:12:20;3.95;;;1.80;;
34924;SDS011;21130;51.728;8.748;2022-08-03T07:14:45;4.75;;;1.90;;
34924;SDS011;21130;51.728;8.748;2022-08-03T07:17:10;2.95;;;1.63;;
34924;SDS011;21130;51.728;8.748;2022-08-03T07:19:36;2.65;;;1.73;;
34924;SDS011;21130;51.728;8.748;2022-08-03T07:22:01;2.67;;;1.88;;
34924;SDS011;21130;51.728;8.748;2022-08-03T07:24:27;2.47;;;1.48;;
34924;SDS011;21130;51.728;8.748;2022-08-03T07:26:53;1.67;;;1.52;;
34924;SDS011;21130;51.728;8.748;2022-08-03T07:29:18;3.40;;;1.80;;
34924;SDS011;21130;51.728;8.748;2022-08-03T07:31:44;5.35;;;1.58;;
34924;SDS011;21130;51.728;8.748;2022-08-03T07:34:09;2.88;;;1.80;;
34924;SDS011;21130;51.728;8.748;2022-08-03T07:36:35;5.90;;;1.65;;
34924;SDS011;21130;51.728;8.748;2022-08-03T07:39:00;2.97;;;1.75;;
34924;SDS011;21130;51.728;8.748;2022-08-03T07:41:25;5.93;;;1.52;;
34924;SDS011;21130;51.728;8.748;2022-08-03T07:43:51;5.63;;;1.98;;
34924;SDS011;21130;51.728;8.748;2022-08-03T07:46:16;2.38;;;1.55;;
34924;SDS011;21130;51.728;8.748;2022-08-03T07:48:41;2.28;;;1.90;;
34924;SDS011;21130;51.728;8.748;2022-08-03T07:51:06;2.03;;;1.80;;
34924;SDS011;21130;51.728;8.748;2022-08-03T07:53:32;2.13;;;1.60;;
34924;SDS011;21130;51.728;8.748;2022-08-03T07:55:57;2.70;;;1.60;;
34924;SDS011;21130;51.728;8.748;2022-08-03T07:58:22;3.60;;;1.80;;
34924;SDS011;21130;51.728;8.748;2022-08-03T08:00:48;1.98;;;1.70;;
34924;SDS011;21130;51.728;8.748;2022-08-03T08:03:14;1.77;;;1.65;;
34924;SDS011;21130;51.728;8.748;2022-08-03T08:05:40;3.30;;;1.83;;
34924;SDS011;21130;51.728;8.748;2022-08-03T08:08:05;3.30;;;1.55;;
34924;SDS011;21130;51.728;8.748;2022-08-03T08:10:31;2.10;;;1.55;;
34924;SDS011;21130;51.728;8.748;2022-08-03T08:12:58;4.22;;;1.50;;
34924;SDS011;21130;51.728;8.748;2022-08-03T08:15:23;2.05;;;1.50;;
34924;SDS011;21130;51.728;8.748;2022-08-03T08:17:50;1.95;;;1.70;;
34924;SDS011;21130;51.728;8.748;2022-08-03T08:20:20;3.25;;;1.60;;
34924;SDS011;21130;51.728;8.748;2022-08-03T08:22:47;1.88;;;1.40;;
34924;SDS011;21130;51.728;8.748;2022-08-03T08:25:13;5.40;;;1.80;;
34924;SDS011;21130;51.728;8.748;2022-08-03T08:27:40;1.73;;;1.63;;
34924;SDS011;21130;51.728;8.748;2022-08-03T08:30:11;3.72;;;1.80;;
34924;SDS011;21130;51.728;8.748;2022-08-03T08:32:38;1.58;;;1.48;;
34924;SDS011;21130;51.728;8.748;2022-08-03T08:35:05;2.40;;;1.50;;
34924;SDS011;21130;51.728;8.748;2022-08-03T08:37:31;1.60;;;1.50;;
34924;SDS011;21130;51.728;8.748;2022-08-03T08:39:57;3.40;;;1.70;;
34924;SDS011;21130;51.728;8.748;2022-08-03T08:42:23;3.88;;;1.45;;
34924;SDS011;21130;51.728;8.748;2022-08-03T08:44:48;3.88;;;1.60;;
34924;SDS011;21130;51.728;8.748;2022-08-03T08:47:13;3.30;;;1.48;;
34924;SDS011;21130;51.728;8.748;2022-08-03T08:49:40;2.78;;;1.50;;
34924;SDS011;21130;51.728;8.748;2022-08-03T08:52:08;2.28;;;1.65;;
34924;SDS011;21130;51.728;8.748;2022-08-03T08:54:36;2.00;;;1.75;;
34924;SDS011;21130;51.728;8.748;2022-08-03T08:57:05;1.60;;;1.50;;
34924;SDS011;21130;51.728;8.748;2022-08-03T08:59:31;1.73;;;1.63;;
34924;SDS011;21130;51.728;8.748;2022-08-03T09:01:58;1.98;;;1.80;;
34924;SDS011;21130;51.728;8.748;2022-08-03T09:04:24;3.63;;;1.73;;
34924;SDS011;21130;51.728;8.748;2022-08-03T09:06:51;1.88;;;1.40;;
34924;SDS011;21130;51.728;8.748;2022-08-03T09:09:16;1.65;;;1.55;;
34924;SDS011;21130;51.728;8.748;2022-08-03T09:11:42;3.67;;;1.90;;
34924;SDS011;21130;51.728;8.748;2022-08-03T09:14:08;3.92;;;1.60;;
34924;SDS011;21130;51.728;8.748;2022-08-03T09:16:34;1.60;;;1.50;;
34924;SDS011;21130;51.728;8.748;2022-08-03T09:19:09;3.25;;;1.50;;
34924;SDS011;21130;51.728;8.748;2022-08-03T09:21:37;2.60;;;1.50;;
34924;SDS011;21130;51.728;8.748;2022-08-03T09:24:04;3.72;;;1.80;;
34924;SDS011;21130;51.728;8.748;2022-08-03T09:26:30;1.70;;;1.60;;
34924;SDS011;21130;51.728;8.748;2022-08-03T09:29:01;3.17;;;1.98;;
34924;SDS011;21130;51.728;8.748;2022-08-03T09:31:39;1.75;;;1.65;;
34924;SDS011;21130;51.728;8.748;2022-08-03T09:34:09;3.60;;;1.58;;
34924;SDS011;21130;51.728;8.748;2022-08-03T09:36:46;2.50;;;1.67;;
34924;SDS011;21130;51.728;8.748;2022-08-03T09:39:19;2.88;;;1.60;;
34924;SDS011;21130;51.728;8.748;2022-08-03T09:41:46;3.92;;;1.83;;
34924;SDS011;21130;51.728;8.748;2022-08-03T09:44:13;4.07;;;1.67;;
34924;SDS011;21130;51.728;8.748;2022-08-03T09:46:55;2.13;;;1.35;;
34924;SDS011;21130;51.728;8.748;2022-08-03T09:49:20;3.28;;;1.70;;
34924;SDS011;21130;51.728;8.748;2022-08-03T09:51:46;2.33;;;1.50;;
34924;SDS011;21130;51.728;8.748;2022-08-03T09:54:12;2.50;;;1.55;;
34924;SDS011;21130;51.728;8.748;2022-08-03T09:56:49;2.13;;;1.65;;
34924;SDS011;21130;51.728;8.748;2022-08-03T09:59:21;2.92;;;1.30;;
34924;SDS011;21130;51.728;8.748;2022-08-03T10:01:55;1.35;;;1.15;;
34924;SDS011;21130;51.728;8.748;2022-08-03T10:04:22;1.60;;;1.50;;
34924;SDS011;21130;51.728;8.748;2022-08-03T10:07:02;2.92;;;1.60;;
34924;SDS011;21130;51.728;8.748;2022-08-03T10:09:33;2.63;;;1.65;;
34924;SDS011;21130;51.728;8.748;2022-08-03T10:12:09;6.28;;;1.83;;
34924;SDS011;21130;51.728;8.748;2022-08-03T10:14:37;2.55;;;1.70;;
34924;SDS011;21130;51.728;8.748;2022-08-03T10:17:04;1.60;;;1.50;;
34924;SDS011;21130;51.728;8.748;2022-08-03T10:19:29;1.75;;;1.50;;
34924;SDS011;21130;51.728;8.748;2022-08-03T10:21:55;3.25;;;1.70;;
34924;SDS011;21130;51.728;8.748;2022-08-03T10:24:25;2.67;;;1.30;;
34924;SDS011;21130;51.728;8.748;2022-08-03T10:26:56;2.03;;;1.50;;
34924;SDS011;21130;51.728;8.748;2022-08-03T10:29:28;5.95;;;1.40;;
34924;SDS011;21130;51.728;8.748;2022-08-03T10:31:55;3.65;;;1.50;;
34924;SDS011;21130;51.728;8.748;2022-08-03T10:34:24;3.00;;;1.42;;
34924;SDS011;21130;51.728;8.748;2022-08-03T10:36:51;2.38;;;1.52;;
34924;SDS011;21130;51.728;8.748;2022-08-03T10:39:23;4.55;;;1.40;;
34924;SDS011;21130;51.728;8.748;2022-08-03T10:41:52;2.22;;;1.58;;
34924;SDS011;21130;51.728;8.748;2022-08-03T10:44:22;4.65;;;1.83;;
34924;SDS011;21130;51.728;8.748;2022-08-03T10:46:50;2.05;;;1.70;;
34924;SDS011;21130;51.728;8.748;2022-08-03T10:49:19;4.13;;;1.75;;
34924;SDS011;21130;51.728;8.748;2022-08-03T10:51:45;2.70;;;1.60;;
34924;SDS011;21130;51.728;8.748;2022-08-03T11:00:14;1.33;;;1.23;;
34924;SDS011;21130;51.728;8.748;2022-08-03T11:03:00;2.47;;;1.90;;
34924;SDS011;21130;51.728;8.748;2022-08-03T11:05:44;2.00;;;1.58;;
34924;SDS011;21130;51.728;8.748;2022-08-03T11:10:46;3.33;;;1.50;;
34924;SDS011;21130;51.728;8.748;2022-08-03T11:13:17;1.83;;;1.50;;
34924;SDS011;21130;51.728;8.748;2022-08-03T11:15:46;3.25;;;1.52;;
34924;SDS011;21130;51.728;8.748;2022-08-03T11:18:13;1.80;;;1.40;;
34924;SDS011;21130;51.728;8.748;2022-08-03T11:23:15;2.22;;;1.60;;
34924;SDS011;21130;51.728;8.748;2022-08-03T11:26:06;2.08;;;1.40;;
34924;SDS011;21130;51.728;8.748;2022-08-03T11:28:52;2.03;;;1.60;;
34924;SDS011;21130;51.728;8.748;2022-08-03T11:37:17;2.17;;;1.70;;
34924;SDS011;21130;51.728;8.748;2022-08-03T11:39:39;1.75;;;1.48;;
34924;SDS011;21130;51.728;8.748;2022-08-03T11:44:48;3.38;;;1.77;;
34924;SDS011;21130;51.728;8.748;2022-08-03T11:47:14;3.10;;;1.85;;
34924;SDS011;21130;51.728;8.748;2022-08-03T11:49:49;1.55;;;1.45;;
34924;SDS011;21130;51.728;8.748;2022-08-03T11:52:15;4.50;;;1.90;;
34924;SDS011;21130;51.728;8.748;2022-08-03T11:54:41;6.25;;;1.70;;
34924;SDS011;21130;51.728;8.748;2022-08-03T11:57:07;2.47;;;1.45;;
34924;SDS011;21130;51.728;8.748;2022-08-03T11:59:33;3.05;;;2.40;;
34924;SDS011;21130;51.728;8.748;2022-08-03T12:02:09;2.47;;;1.90;;
34924;SDS011;21130;51.728;8.748;2022-08-03T12:04:54;2.05;;;1.70;;
34924;SDS011;21130;51.728;8.748;2022-08-03T12:07:23;2.67;;;1.77;;
34924;SDS011;21130;51.728;8.748;2022-08-03T12:10:08;3.08;;;1.70;;
34924;SDS011;21130;51.728;8.748;2022-08-03T12:12:35;5.07;;;2.30;;
34924;SDS011;21130;51.728;8.748;2022-08-03T12:15:01;2.17;;;1.58;;
34924;SDS011;21130;51.728;8.748;2022-08-03T12:17:32;2.65;;;1.80;;
34924;SDS011;21130;51.728;8.748;2022-08-03T12:20:03;5.60;;;1.67;;
34924;SDS011;21130;51.728;8.748;2022-08-03T12:22:30;2.67;;;1.60;;
34924;SDS011;21130;51.728;8.748;2022-08-03T12:24:57;2.45;;;1.90;;
34924;SDS011;21130;51.728;8.748;2022-08-03T12:27:23;2.35;;;1.50;;
34924;SDS011;21130;51.728;8.748;2022-08-03T12:29:53;3.17;;;1.52;;
34924;SDS011;21130;51.728;8.748;2022-08-03T12:32:19;3.05;;;1.50;;
34924;SDS011;21130;51.728;8.748;2022-08-03T12:34:45;2.72;;;1.77;;
34924;SDS011;21130;51.728;8.748;2022-08-03T12:37:18;3.95;;;1.85;;
34924;SDS011;21130;51.728;8.748;2022-08-03T12:39:54;3.35;;;1.77;;
34924;SDS011;21130;51.728;8.748;2022-08-03T12:42:20;2.58;;;1.70;;
34924;SDS011;21130;51.728;8.748;2022-08-03T12:45:16;3.38;;;1.90;;
34924;SDS011;21130;51.728;8.748;2022-08-03T12:47:52;2.85;;;1.63;;
34924;SDS011;21130;51.728;8.748;2022-08-03T12:50:32;1.75;;;1.65;;
34924;SDS011;21130;51.728;8.748;2022-08-03T12:53:00;3.33;;;1.90;;
34924;SDS011;21130;51.728;8.748;2022-08-03T12:55:28;3.63;;;1.65;;
34924;SDS011;21130;51.728;8.748;2022-08-03T12:58:00;4.60;;;1.75;;
34924;SDS011;21130;51.728;8.748;2022-08-03T13:00:27;1.98;;;1.70;;
34924;SDS011;21130;51.728;8.748;2022-08-03T13:03:01;2.55;;;1.92;;
34924;SDS011;21130;51.728;8.748;2022-08-03T13:05:28;4.45;;;1.80;;
34924;SDS011;21130;51.728;8.748;2022-08-03T13:07:54;3.58;;;1.63;;
34924;SDS011;21130;51.728;8.748;2022-08-03T13:10:30;5.72;;;1.40;;
34924;SDS011;21130;51.728;8.748;2022-08-03T13:12:56;2.10;;;1.90;;
34924;SDS011;21130;51.728;8.748;2022-08-03T13:15:24;1.60;;;1.50;;
34924;SDS011;21130;51.728;8.748;2022-08-03T13:17:53;2.42;;;1.60;;
34924;SDS011;21130;51.728;8.748;2022-08-03T13:20:21;3.55;;;1.58;;
34924;SDS011;21130;51.728;8.748;2022-08-03T13:22:47;5.13;;;2.10;;
34924;SDS011;21130;51.728;8.748;2022-08-03T13:25:12;2.55;;;1.55;;
34924;SDS011;21130;51.728;8.748;2022-08-03T13:27:38;2.33;;;1.70;;
34924;SDS011;21130;51.728;8.748;2022-08-03T13:30:04;3.42;;;1.85;;
34924;SDS011;21130;51.728;8.748;2022-08-03T13:32:51;2.85;;;1.85;;
34924;SDS011;21130;51.728;8.748;2022-08-03T13:35:16;3.17;;;1.85;;
34924;SDS011;21130;51.728;8.748;2022-08-03T13:37:45;2.33;;;1.58;;
34924;SDS011;21130;51.728;8.748;2022-08-03T13:40:13;2.80;;;2.00;;
34924;SDS011;21130;51.728;8.748;2022-08-03T13:42:39;1.73;;;1.63;;
34924;SDS011;21130;51.728;8.748;2022-08-03T13:45:04;2.92;;;1.80;;
34924;SDS011;21130;51.728;8.748;2022-08-03T13:47:30;2.90;;;1.90;;
34924;SDS011;21130;51.728;8.748;2022-08-03T13:49:56;2.85;;;1.85;;
34924;SDS011;21130;51.728;8.748;2022-08-03T13:52:21;1.92;;;1.42;;
34924;SDS011;21130;51.728;8.748;2022-08-03T13:54:46;2.92;;;1.67;;
34924;SDS011;21130;51.728;8.748;2022-08-03T13:57:11;3.50;;;1.65;;
34924;SDS011;21130;51.728;8.748;2022-08-03T13:59:37;1.80;;;1.50;;
34924;SDS011;21130;51.728;8.748;2022-08-03T14:02:02;1.73;;;1.60;;
34924;SDS011;21130;51.728;8.748;2022-08-03T14:04:28;6.68;;;1.80;;
34924;SDS011;21130;51.728;8.748;2022-08-03T14:06:54;3.08;;;1.67;;
34924;SDS011;21130;51.728;8.748;2022-08-03T14:09:19;3.45;;;1.75;;
34924;SDS011;21130;51.728;8.748;2022-08-03T14:11:45;3.45;;;1.70;;
34924;SDS011;21130;51.728;8.748;2022-08-03T14:14:11;1.98;;;1.75;;
34924;SDS011;21130;51.728;8.748;2022-08-03T14:16:36;2.83;;;1.60;;
34924;SDS011;21130;51.728;8.748;2022-08-03T14:19:03;3.45;;;1.58;;
34924;SDS011;21130;51.728;8.748;2022-08-03T14:21:31;1.73;;;1.60;;
34924;SDS011;21130;51.728;8.748;2022-08-03T14:23:57;2.20;;;1.58;;
34924;SDS011;21130;51.728;8.748;2022-08-03T14:26:22;1.40;;;1.30;;
34924;SDS011;21130;51.728;8.748;2022-08-03T14:28:48;2.55;;;1.77;;
34924;SDS011;21130;51.728;8.748;2022-08-03T14:31:13;2.40;;;1.50;;
34924;SDS011;21130;51.728;8.748;2022-08-03T14:33:38;2.92;;;1.60;;
34924;SDS011;21130;51.728;8.748;2022-08-03T14:36:04;5.10;;;1.50;;
34924;SDS011;21130;51.728;8.748;2022-08-03T14:38:29;1.98;;;1.45;;
34924;SDS011;21130;51.728;8.748;2022-08-03T14:40:56;2.30;;;1.50;;
34924;SDS011;21130;51.728;8.748;2022-08-03T14:43:21;2.40;;;1.77;;
34924;SDS011;21130;51.728;8.748;2022-08-03T14:45:50;4.18;;;1.50;;
34924;SDS011;21130;51.728;8.748;2022-08-03T14:48:21;1.45;;;1.30;;
34924;SDS011;21130;51.728;8.748;2022-08-03T14:50:47;1.90;;;1.70;;
34924;SDS011;21130;51.728;8.748;2022-08-03T14:53:14;4.07;;;1.95;;
34924;SDS011;21130;51.728;8.748;2022-08-03T14:55:41;2.75;;;1.83;;
34924;SDS011;21130;51.728;8.748;2022-08-03T14:58:07;2.38;;;1.75;;
34924;SDS011;21130;51.728;8.748;2022-08-03T15:00:32;1.85;;;1.33;;
34924;SDS011;21130;51.728;8.748;2022-08-03T15:02:58;3.15;;;1.55;;
34924;SDS011;21130;51.728;8.748;2022-08-03T15:05:23;3.67;;;1.70;;
34924;SDS011;21130;51.728;8.748;2022-08-03T15:07:49;2.80;;;1.60;;
34924;SDS011;21130;51.728;8.748;2022-08-03T15:10:14;3.67;;;1.70;;
34924;SDS011;21130;51.728;8.748;2022-08-03T15:12:39;1.70;;;1.60;;
34924;SDS011;21130;51.728;8.748;2022-08-03T15:15:05;3.30;;;1.80;;
34924;SDS011;21130;51.728;8.748;2022-08-03T15:17:30;2.15;;;1.90;;